首页
METAR-TAF:

METAR-TAF

机场 :

通孔廷国际机场

德古斯加巴, 洪都拉斯

纬度: 14-03N, 经度: 087-13W, 海拔: 994米

当前天气观测

该预报发布于38分钟前的17:00 UTC
风速6节,风向东转东北
温度 25°C
湿度 65%
气压 1023 hPa
能见度10公里或以上
多云层高于3000英尺

METAR: MHTG 081700Z 07006KT 9999 BKN030 25/18 Q1023 A3021

时间: 11:38 (17:38 UTC)

预报

该预报发布于7小时和8分钟前的10:30 UTC
预报有效从08日的 12点(UTC)到 09日的 12点(UTC)
风速12节,风向东北
能见度10公里或以上
多云层高于2800英尺
成为
从 08日的 18点(UTC)到 08日的 20点(UTC)
散云层高于2800英尺, 塔状积云.
散云层高于9000英尺
短暂存在
从 08日的 21点(UTC)到 09日的 03点(UTC)
能見度: 7000
散云层高于3000英尺, 塔状积云.
散云层高于8000英尺
小雨
成为
从 09日的 03点(UTC)到 08日的 05点(UTC)
能見度: 8000
散云层高于2700英尺
散云层高于8000英尺
附近有阵雨
成为
从 09日的 09点(UTC)到 09日的 11点(UTC)
能见度10公里或以上
少量云层高于600英尺
散云层高于2500英尺
多云层高于7000英尺

TAF: MHTG 081030Z 0812/0912 04012KT 9999 BKN028 TX28/0819Z TN16/0912Z BECMG 0818/0820 SCT028TCU SCT090 TEMPO 0821/0903 7000 -RA SCT030TCU SCT080 BECMG 0903/0805 8000 VCSH SCT027 SCT080 BECMG 0909/0911 9999 NSW FEW006 SCT025 BKN070

超过4000个机场的气象观测和天气预报(METAR&TAF报告)。

可查询的气象台以黄色和红色小点在地图上表示。

将鼠标移到小点上方,可查看气象台名称。

然后点击查看天气观测和预报。

如需切换地图:点击带黑十字的绿色按钮放大地图;点击带横线的绿色按钮缩小地图;或者点击绿色箭头查看邻近地区的地图。


METAR-TAF: